sensor_id;sensor_type;location;lat;lon;timestamp;temperature;humidity
21481;DHT22;10902;48.158;8.634;2023-03-14T00:00:11;7.70;99.90
21481;DHT22;10902;48.158;8.634;2023-03-14T00:02:38;7.70;99.90
21481;DHT22;10902;48.158;8.634;2023-03-14T00:05:04;7.60;99.90
21481;DHT22;10902;48.158;8.634;2023-03-14T00:07:36;7.60;99.90
21481;DHT22;10902;48.158;8.634;2023-03-14T00:10:08;7.60;99.90
21481;DHT22;10902;48.158;8.634;2023-03-14T00:12:34;7.60;99.90
21481;DHT22;10902;48.158;8.634;2023-03-14T00:15:00;7.50;99.90
21481;DHT22;10902;48.158;8.634;2023-03-14T00:17:28;7.50;99.90
21481;DHT22;10902;48.158;8.634;2023-03-14T00:19:54;7.50;99.90
21481;DHT22;10902;48.158;8.634;2023-03-14T00:22:20;7.50;99.90
21481;DHT22;10902;48.158;8.634;2023-03-14T00:24:46;7.50;99.90
21481;DHT22;10902;48.158;8.634;2023-03-14T00:27:12;7.60;99.90
21481;DHT22;10902;48.158;8.634;2023-03-14T00:29:37;7.60;99.90
21481;DHT22;10902;48.158;8.634;2023-03-14T00:32:03;7.70;99.90
21481;DHT22;10902;48.158;8.634;2023-03-14T00:34:30;7.90;99.90
21481;DHT22;10902;48.158;8.634;2023-03-14T00:36:56;7.90;99.90
21481;DHT22;10902;48.158;8.634;2023-03-14T00:39:22;7.90;99.90
21481;DHT22;10902;48.158;8.634;2023-03-14T00:41:47;7.80;99.90
21481;DHT22;10902;48.158;8.634;2023-03-14T00:44:18;7.70;99.90
21481;DHT22;10902;48.158;8.634;2023-03-14T00:46:43;7.70;99.90
21481;DHT22;10902;48.158;8.634;2023-03-14T00:49:09;7.80;99.90
21481;DHT22;10902;48.158;8.634;2023-03-14T00:51:34;7.70;99.90
21481;DHT22;10902;48.158;8.634;2023-03-14T00:54:00;7.60;99.90
21481;DHT22;10902;48.158;8.634;2023-03-14T00:56:26;7.60;99.90
21481;DHT22;10902;48.158;8.634;2023-03-14T00:58:55;7.60;99.90
21481;DHT22;10902;48.158;8.634;2023-03-14T01:01:21;7.70;99.90
21481;DHT22;10902;48.158;8.634;2023-03-14T01:03:49;7.60;99.90
21481;DHT22;10902;48.158;8.634;2023-03-14T01:06:17;7.50;99.90
21481;DHT22;10902;48.158;8.634;2023-03-14T01:08:44;7.50;99.90
21481;DHT22;10902;48.158;8.634;2023-03-14T01:11:13;7.50;99.90
21481;DHT22;10902;48.158;8.634;2023-03-14T01:13:39;7.40;99.90
21481;DHT22;10902;48.158;8.634;2023-03-14T01:16:08;7.30;99.90
21481;DHT22;10902;48.158;8.634;2023-03-14T01:18:34;7.30;99.90
21481;DHT22;10902;48.158;8.634;2023-03-14T01:21:08;7.30;99.90
21481;DHT22;10902;48.158;8.634;2023-03-14T01:23:34;7.30;99.90
21481;DHT22;10902;48.158;8.634;2023-03-14T01:26:00;7.20;99.90
21481;DHT22;10902;48.158;8.634;2023-03-14T01:28:25;7.20;99.90
21481;DHT22;10902;48.158;8.634;2023-03-14T01:30:51;7.10;99.90
21481;DHT22;10902;48.158;8.634;2023-03-14T01:33:16;7.10;99.90
21481;DHT22;10902;48.158;8.634;2023-03-14T01:35:42;7.10;99.90
21481;DHT22;10902;48.158;8.634;2023-03-14T01:38:07;7.10;99.90
21481;DHT22;10902;48.158;8.634;2023-03-14T01:40:33;7.10;99.90
21481;DHT22;10902;48.158;8.634;2023-03-14T01:43:12;7.10;99.90
21481;DHT22;10902;48.158;8.634;2023-03-14T01:53:54;7.20;99.90
21481;DHT22;10902;48.158;8.634;2023-03-14T01:56:23;7.20;99.90
21481;DHT22;10902;48.158;8.634;2023-03-14T01:58:50;7.20;99.90
21481;DHT22;10902;48.158;8.634;2023-03-14T02:01:19;7.20;99.90
21481;DHT22;10902;48.158;8.634;2023-03-14T02:03:50;7.20;99.90
21481;DHT22;10902;48.158;8.634;2023-03-14T02:06:21;7.10;99.90
21481;DHT22;10902;48.158;8.634;2023-03-14T02:08:47;7.20;99.90
21481;DHT22;10902;48.158;8.634;2023-03-14T02:11:15;7.10;99.90
21481;DHT22;10902;48.158;8.634;2023-03-14T02:13:42;7.10;99.90
21481;DHT22;10902;48.158;8.634;2023-03-14T02:16:08;7.10;99.90
21481;DHT22;10902;48.158;8.634;2023-03-14T02:18:34;7.10;99.90
21481;DHT22;10902;48.158;8.634;2023-03-14T02:21:23;7.10;99.90
21481;DHT22;10902;48.158;8.634;2023-03-14T02:27:06;7.00;99.90
21481;DHT22;10902;48.158;8.634;2023-03-14T02:29:31;7.00;99.90
21481;DHT22;10902;48.158;8.634;2023-03-14T02:31:58;7.00;99.90
21481;DHT22;10902;48.158;8.634;2023-03-14T02:34:24;7.00;99.90
21481;DHT22;10902;48.158;8.634;2023-03-14T02:36:50;7.00;99.90
21481;DHT22;10902;48.158;8.634;2023-03-14T02:39:24;6.90;99.90
21481;DHT22;10902;48.158;8.634;2023-03-14T02:41:51;6.90;99.90
21481;DHT22;10902;48.158;8.634;2023-03-14T02:44:16;6.90;99.90
21481;DHT22;10902;48.158;8.634;2023-03-14T02:46:42;6.90;99.90
21481;DHT22;10902;48.158;8.634;2023-03-14T02:49:10;6.80;99.90
21481;DHT22;10902;48.158;8.634;2023-03-14T02:51:37;6.90;99.90
21481;DHT22;10902;48.158;8.634;2023-03-14T02:54:05;6.80;99.90
21481;DHT22;10902;48.158;8.634;2023-03-14T02:56:30;6.80;99.90
21481;DHT22;10902;48.158;8.634;2023-03-14T02:58:56;6.80;99.90
21481;DHT22;10902;48.158;8.634;2023-03-14T03:01:23;6.80;99.90
21481;DHT22;10902;48.158;8.634;2023-03-14T03:03:48;6.70;99.90
21481;DHT22;10902;48.158;8.634;2023-03-14T03:06:15;6.60;99.90
21481;DHT22;10902;48.158;8.634;2023-03-14T03:08:40;6.60;99.90
21481;DHT22;10902;48.158;8.634;2023-03-14T03:11:06;6.60;99.90
21481;DHT22;10902;48.158;8.634;2023-03-14T03:13:32;6.60;99.90
21481;DHT22;10902;48.158;8.634;2023-03-14T03:15:58;6.50;99.90
21481;DHT22;10902;48.158;8.634;2023-03-14T03:18:23;6.50;99.90
21481;DHT22;10902;48.158;8.634;2023-03-14T03:20:49;6.50;99.90
21481;DHT22;10902;48.158;8.634;2023-03-14T03:23:14;6.50;99.90
21481;DHT22;10902;48.158;8.634;2023-03-14T03:25:40;6.50;99.90
21481;DHT22;10902;48.158;8.634;2023-03-14T03:28:05;6.40;99.90
21481;DHT22;10902;48.158;8.634;2023-03-14T03:30:37;6.40;99.90
21481;DHT22;10902;48.158;8.634;2023-03-14T03:33:02;6.40;99.90
21481;DHT22;10902;48.158;8.634;2023-03-14T03:35:28;6.40;99.90
21481;DHT22;10902;48.158;8.634;2023-03-14T03:37:54;6.40;99.90
21481;DHT22;10902;48.158;8.634;2023-03-14T03:40:19;6.40;99.90
21481;DHT22;10902;48.158;8.634;2023-03-14T03:42:45;6.40;99.90
21481;DHT22;10902;48.158;8.634;2023-03-14T03:45:10;6.40;99.90
21481;DHT22;10902;48.158;8.634;2023-03-14T03:47:36;6.30;99.90
21481;DHT22;10902;48.158;8.634;2023-03-14T03:50:01;6.30;99.90
21481;DHT22;10902;48.158;8.634;2023-03-14T03:52:27;6.30;99.90
21481;DHT22;10902;48.158;8.634;2023-03-14T03:54:53;6.30;99.90
21481;DHT22;10902;48.158;8.634;2023-03-14T03:57:19;6.30;99.90
21481;DHT22;10902;48.158;8.634;2023-03-14T03:59:45;6.30;99.90
21481;DHT22;10902;48.158;8.634;2023-03-14T04:02:10;6.30;99.90
21481;DHT22;10902;48.158;8.634;2023-03-14T04:04:36;6.30;99.90
21481;DHT22;10902;48.158;8.634;2023-03-14T04:07:03;6.30;99.90
21481;DHT22;10902;48.158;8.634;2023-03-14T04:09:30;6.30;99.90
21481;DHT22;10902;48.158;8.634;2023-03-14T04:11:56;6.30;99.90
21481;DHT22;10902;48.158;8.634;2023-03-14T04:14:21;6.40;99.90
21481;DHT22;10902;48.158;8.634;2023-03-14T04:16:47;6.40;99.90
21481;DHT22;10902;48.158;8.634;2023-03-14T04:19:13;6.40;99.90
21481;DHT22;10902;48.158;8.634;2023-03-14T04:21:38;6.50;99.90
21481;DHT22;10902;48.158;8.634;2023-03-14T04:24:09;6.50;99.90
21481;DHT22;10902;48.158;8.634;2023-03-14T04:26:34;6.50;99.90
21481;DHT22;10902;48.158;8.634;2023-03-14T04:29:00;6.50;99.90
21481;DHT22;10902;48.158;8.634;2023-03-14T04:31:25;6.50;99.90
21481;DHT22;10902;48.158;8.634;2023-03-14T04:33:51;6.50;99.90
21481;DHT22;10902;48.158;8.634;2023-03-14T04:36:17;6.50;99.90
21481;DHT22;10902;48.158;8.634;2023-03-14T04:38:42;6.50;99.90
21481;DHT22;10902;48.158;8.634;2023-03-14T04:41:08;6.50;99.90
21481;DHT22;10902;48.158;8.634;2023-03-14T04:43:33;6.60;99.90
21481;DHT22;10902;48.158;8.634;2023-03-14T04:45:59;6.70;99.90
21481;DHT22;10902;48.158;8.634;2023-03-14T04:48:26;6.70;99.90
21481;DHT22;10902;48.158;8.634;2023-03-14T04:50:52;6.80;99.90
21481;DHT22;10902;48.158;8.634;2023-03-14T04:53:18;6.80;99.90
21481;DHT22;10902;48.158;8.634;2023-03-14T04:55:51;6.80;99.90
21481;DHT22;10902;48.158;8.634;2023-03-14T04:58:17;6.90;99.90
21481;DHT22;10902;48.158;8.634;2023-03-14T05:00:44;7.00;99.90
21481;DHT22;10902;48.158;8.634;2023-03-14T05:03:10;6.90;99.90
21481;DHT22;10902;48.158;8.634;2023-03-14T05:05:35;6.90;99.90
21481;DHT22;10902;48.158;8.634;2023-03-14T05:08:01;6.80;99.90
21481;DHT22;10902;48.158;8.634;2023-03-14T05:10:26;6.80;99.90
21481;DHT22;10902;48.158;8.634;2023-03-14T05:12:52;6.80;99.90
21481;DHT22;10902;48.158;8.634;2023-03-14T05:15:18;6.90;99.90
21481;DHT22;10902;48.158;8.634;2023-03-14T05:17:44;6.80;99.90
21481;DHT22;10902;48.158;8.634;2023-03-14T05:20:10;6.70;99.90
21481;DHT22;10902;48.158;8.634;2023-03-14T05:22:38;6.70;99.90
21481;DHT22;10902;48.158;8.634;2023-03-14T05:25:04;6.70;99.90
21481;DHT22;10902;48.158;8.634;2023-03-14T05:27:30;6.70;99.90
21481;DHT22;10902;48.158;8.634;2023-03-14T05:29:55;6.70;99.90
21481;DHT22;10902;48.158;8.634;2023-03-14T05:32:21;6.70;99.90
21481;DHT22;10902;48.158;8.634;2023-03-14T05:34:46;6.60;99.90
21481;DHT22;10902;48.158;8.634;2023-03-14T05:37:12;6.60;99.90
21481;DHT22;10902;48.158;8.634;2023-03-14T05:39:37;6.60;99.90
21481;DHT22;10902;48.158;8.634;2023-03-14T05:42:03;6.50;99.90
21481;DHT22;10902;48.158;8.634;2023-03-14T05:44:29;6.40;99.90
21481;DHT22;10902;48.158;8.634;2023-03-14T05:46:54;6.40;99.90
21481;DHT22;10902;48.158;8.634;2023-03-14T05:49:20;6.40;99.90
21481;DHT22;10902;48.158;8.634;2023-03-14T05:51:45;6.50;99.90
21481;DHT22;10902;48.158;8.634;2023-03-14T05:54:11;6.50;99.90
21481;DHT22;10902;48.158;8.634;2023-03-14T05:56:36;6.60;99.90
21481;DHT22;10902;48.158;8.634;2023-03-14T05:59:02;6.60;99.90
21481;DHT22;10902;48.158;8.634;2023-03-14T06:01:29;6.70;99.90
21481;DHT22;10902;48.158;8.634;2023-03-14T06:03:54;6.70;99.90
21481;DHT22;10902;48.158;8.634;2023-03-14T06:06:20;6.80;99.90
21481;DHT22;10902;48.158;8.634;2023-03-14T06:08:46;6.80;99.90
21481;DHT22;10902;48.158;8.634;2023-03-14T06:11:11;6.70;99.90
21481;DHT22;10902;48.158;8.634;2023-03-14T06:13:37;6.70;99.90
21481;DHT22;10902;48.158;8.634;2023-03-14T06:16:03;6.60;99.90
21481;DHT22;10902;48.158;8.634;2023-03-14T06:18:28;6.60;99.90
21481;DHT22;10902;48.158;8.634;2023-03-14T06:20:55;6.60;99.90
21481;DHT22;10902;48.158;8.634;2023-03-14T06:23:21;6.60;99.90
21481;DHT22;10902;48.158;8.634;2023-03-14T06:25:47;6.50;99.90
21481;DHT22;10902;48.158;8.634;2023-03-14T06:28:13;6.60;99.90
21481;DHT22;10902;48.158;8.634;2023-03-14T06:30:38;6.60;99.90
21481;DHT22;10902;48.158;8.634;2023-03-14T06:33:04;6.60;99.90
21481;DHT22;10902;48.158;8.634;2023-03-14T06:35:29;6.60;99.90
21481;DHT22;10902;48.158;8.634;2023-03-14T06:37:55;6.60;99.90
21481;DHT22;10902;48.158;8.634;2023-03-14T06:40:21;6.60;99.90
21481;DHT22;10902;48.158;8.634;2023-03-14T06:42:47;6.60;99.90
21481;DHT22;10902;48.158;8.634;2023-03-14T06:45:13;6.60;99.90
21481;DHT22;10902;48.158;8.634;2023-03-14T06:47:38;6.70;99.90
21481;DHT22;10902;48.158;8.634;2023-03-14T06:50:05;6.60;99.90
21481;DHT22;10902;48.158;8.634;2023-03-14T06:52:31;6.60;99.90
21481;DHT22;10902;48.158;8.634;2023-03-14T06:54:57;6.60;99.90
21481;DHT22;10902;48.158;8.634;2023-03-14T06:57:22;6.60;99.90
21481;DHT22;10902;48.158;8.634;2023-03-14T06:59:48;6.60;99.90
21481;DHT22;10902;48.158;8.634;2023-03-14T07:02:14;6.60;99.90
21481;DHT22;10902;48.158;8.634;2023-03-14T07:04:40;6.70;99.90
21481;DHT22;10902;48.158;8.634;2023-03-14T07:07:05;6.80;99.90
21481;DHT22;10902;48.158;8.634;2023-03-14T07:09:31;6.80;99.90
21481;DHT22;10902;48.158;8.634;2023-03-14T07:11:57;6.90;99.90
21481;DHT22;10902;48.158;8.634;2023-03-14T07:14:23;7.00;99.90
21481;DHT22;10902;48.158;8.634;2023-03-14T07:16:49;7.20;99.90
21481;DHT22;10902;48.158;8.634;2023-03-14T07:19:14;7.00;99.90
21481;DHT22;10902;48.158;8.634;2023-03-14T07:21:40;7.00;99.90
21481;DHT22;10902;48.158;8.634;2023-03-14T07:24:05;7.10;99.90
21481;DHT22;10902;48.158;8.634;2023-03-14T07:26:31;7.10;99.90
21481;DHT22;10902;48.158;8.634;2023-03-14T07:28:56;7.10;99.90
21481;DHT22;10902;48.158;8.634;2023-03-14T07:31:22;7.10;99.90
21481;DHT22;10902;48.158;8.634;2023-03-14T07:33:48;7.20;99.90
21481;DHT22;10902;48.158;8.634;2023-03-14T07:36:14;7.20;99.90
21481;DHT22;10902;48.158;8.634;2023-03-14T07:38:39;7.40;99.90
21481;DHT22;10902;48.158;8.634;2023-03-14T07:41:06;7.50;99.90
21481;DHT22;10902;48.158;8.634;2023-03-14T07:43:32;7.70;99.90
21481;DHT22;10902;48.158;8.634;2023-03-14T07:45:58;7.80;99.90
21481;DHT22;10902;48.158;8.634;2023-03-14T07:48:23;7.80;99.90
21481;DHT22;10902;48.158;8.634;2023-03-14T07:50:51;8.10;99.90
21481;DHT22;10902;48.158;8.634;2023-03-14T07:53:17;8.10;99.90
21481;DHT22;10902;48.158;8.634;2023-03-14T07:55:43;8.20;99.90
21481;DHT22;10902;48.158;8.634;2023-03-14T07:58:08;8.30;99.90
21481;DHT22;10902;48.158;8.634;2023-03-14T08:00:34;8.60;99.90
21481;DHT22;10902;48.158;8.634;2023-03-14T08:02:59;8.60;99.90
21481;DHT22;10902;48.158;8.634;2023-03-14T08:05:25;8.80;99.90
21481;DHT22;10902;48.158;8.634;2023-03-14T08:07:50;9.00;99.90
21481;DHT22;10902;48.158;8.634;2023-03-14T08:10:16;9.40;99.90
21481;DHT22;10902;48.158;8.634;2023-03-14T08:12:54;9.50;99.90
21481;DHT22;10902;48.158;8.634;2023-03-14T08:15:21;9.70;99.90
21481;DHT22;10902;48.158;8.634;2023-03-14T08:17:47;9.60;99.90
21481;DHT22;10902;48.158;8.634;2023-03-14T08:20:25;9.40;99.90
21481;DHT22;10902;48.158;8.634;2023-03-14T08:22:51;9.40;99.90
21481;DHT22;10902;48.158;8.634;2023-03-14T08:25:17;9.20;99.90
21481;DHT22;10902;48.158;8.634;2023-03-14T08:27:43;9.20;99.90
21481;DHT22;10902;48.158;8.634;2023-03-14T08:30:14;9.10;99.90
21481;DHT22;10902;48.158;8.634;2023-03-14T08:32:40;9.20;99.90
21481;DHT22;10902;48.158;8.634;2023-03-14T08:35:07;9.10;99.90
21481;DHT22;10902;48.158;8.634;2023-03-14T08:37:33;9.30;99.90
21481;DHT22;10902;48.158;8.634;2023-03-14T08:39:59;9.30;99.90
21481;DHT22;10902;48.158;8.634;2023-03-14T08:42:25;9.10;99.90
21481;DHT22;10902;48.158;8.634;2023-03-14T08:44:51;9.20;99.90
21481;DHT22;10902;48.158;8.634;2023-03-14T08:47:17;8.90;99.90
21481;DHT22;10902;48.158;8.634;2023-03-14T08:49:43;8.90;99.90
21481;DHT22;10902;48.158;8.634;2023-03-14T08:52:09;8.90;99.90
21481;DHT22;10902;48.158;8.634;2023-03-14T08:54:35;8.90;99.90
21481;DHT22;10902;48.158;8.634;2023-03-14T08:57:00;8.90;99.90
21481;DHT22;10902;48.158;8.634;2023-03-14T08:59:26;8.90;99.90
21481;DHT22;10902;48.158;8.634;2023-03-14T09:01:52;8.80;99.90
21481;DHT22;10902;48.158;8.634;2023-03-14T09:04:18;8.70;99.90
21481;DHT22;10902;48.158;8.634;2023-03-14T09:06:43;8.70;99.90
21481;DHT22;10902;48.158;8.634;2023-03-14T09:09:09;8.70;99.90
21481;DHT22;10902;48.158;8.634;2023-03-14T09:11:35;8.80;99.90
21481;DHT22;10902;48.158;8.634;2023-03-14T09:14:00;8.70;99.90
21481;DHT22;10902;48.158;8.634;2023-03-14T09:16:26;8.70;99.90
21481;DHT22;10902;48.158;8.634;2023-03-14T09:18:52;8.70;99.90
21481;DHT22;10902;48.158;8.634;2023-03-14T09:21:23;8.70;99.90
21481;DHT22;10902;48.158;8.634;2023-03-14T09:23:48;8.80;99.90
21481;DHT22;10902;48.158;8.634;2023-03-14T09:26:14;9.00;99.90
21481;DHT22;10902;48.158;8.634;2023-03-14T09:28:39;9.10;99.90
21481;DHT22;10902;48.158;8.634;2023-03-14T09:31:06;9.20;99.90
21481;DHT22;10902;48.158;8.634;2023-03-14T09:33:33;9.20;99.90
21481;DHT22;10902;48.158;8.634;2023-03-14T09:35:59;9.40;99.90
21481;DHT22;10902;48.158;8.634;2023-03-14T09:38:25;9.50;99.90
21481;DHT22;10902;48.158;8.634;2023-03-14T09:40:52;9.70;99.90
21481;DHT22;10902;48.158;8.634;2023-03-14T09:43:18;9.90;99.90
21481;DHT22;10902;48.158;8.634;2023-03-14T09:45:48;10.20;99.90
21481;DHT22;10902;48.158;8.634;2023-03-14T09:48:17;10.20;99.90
21481;DHT22;10902;48.158;8.634;2023-03-14T09:50:46;10.40;99.90
21481;DHT22;10902;48.158;8.634;2023-03-14T09:53:17;10.70;99.90
21481;DHT22;10902;48.158;8.634;2023-03-14T09:55:45;10.50;99.90
21481;DHT22;10902;48.158;8.634;2023-03-14T09:58:14;10.30;99.90
21481;DHT22;10902;48.158;8.634;2023-03-14T10:00:41;10.30;99.90
21481;DHT22;10902;48.158;8.634;2023-03-14T10:05:39;10.10;99.90
21481;DHT22;10902;48.158;8.634;2023-03-14T10:08:06;10.10;99.90
21481;DHT22;10902;48.158;8.634;2023-03-14T10:10:32;9.90;99.90
21481;DHT22;10902;48.158;8.634;2023-03-14T10:15:47;10.10;99.90
21481;DHT22;10902;48.158;8.634;2023-03-14T10:18:14;10.10;99.90
21481;DHT22;10902;48.158;8.634;2023-03-14T10:23:23;10.30;99.90
21481;DHT22;10902;48.158;8.634;2023-03-14T10:26:16;10.30;99.90
21481;DHT22;10902;48.158;8.634;2023-03-14T10:28:46;9.60;99.90
21481;DHT22;10902;48.158;8.634;2023-03-14T10:31:12;9.30;99.90
21481;DHT22;10902;48.158;8.634;2023-03-14T10:33:39;8.90;99.90
21481;DHT22;10902;48.158;8.634;2023-03-14T10:36:26;8.70;99.90
21481;DHT22;10902;48.158;8.634;2023-03-14T10:41:53;8.60;99.90
21481;DHT22;10902;48.158;8.634;2023-03-14T10:44:23;8.50;99.90
21481;DHT22;10902;48.158;8.634;2023-03-14T10:47:03;8.50;99.90
21481;DHT22;10902;48.158;8.634;2023-03-14T10:49:34;8.20;99.90
21481;DHT22;10902;48.158;8.634;2023-03-14T10:52:21;7.90;99.90
21481;DHT22;10902;48.158;8.634;2023-03-14T10:55:03;7.60;99.90
21481;DHT22;10902;48.158;8.634;2023-03-14T10:57:29;7.40;99.90
21481;DHT22;10902;48.158;8.634;2023-03-14T10:59:56;7.30;99.90
21481;DHT22;10902;48.158;8.634;2023-03-14T11:02:45;7.20;99.90
21481;DHT22;10902;48.158;8.634;2023-03-14T11:05:43;7.00;99.90
21481;DHT22;10902;48.158;8.634;2023-03-14T11:08:33;7.00;99.90
21481;DHT22;10902;48.158;8.634;2023-03-14T11:11:14;6.90;99.90
21481;DHT22;10902;48.158;8.634;2023-03-14T11:14:02;6.90;99.90
21481;DHT22;10902;48.158;8.634;2023-03-14T11:16:41;7.00;99.90
21481;DHT22;10902;48.158;8.634;2023-03-14T11:22:36;7.30;99.90
21481;DHT22;10902;48.158;8.634;2023-03-14T11:28:48;7.30;99.90
21481;DHT22;10902;48.158;8.634;2023-03-14T11:33:37;7.20;99.90
21481;DHT22;10902;48.158;8.634;2023-03-14T11:36:07;7.10;99.90
21481;DHT22;10902;48.158;8.634;2023-03-14T11:38:52;7.10;99.90
21481;DHT22;10902;48.158;8.634;2023-03-14T11:41:27;7.10;99.90
21481;DHT22;10902;48.158;8.634;2023-03-14T11:43:59;7.10;99.90
21481;DHT22;10902;48.158;8.634;2023-03-14T11:46:36;7.10;99.90
21481;DHT22;10902;48.158;8.634;2023-03-14T11:51:45;7.10;99.90
21481;DHT22;10902;48.158;8.634;2023-03-14T11:54:34;7.00;99.90
21481;DHT22;10902;48.158;8.634;2023-03-14T11:57:13;7.00;99.90
21481;DHT22;10902;48.158;8.634;2023-03-14T11:59:50;7.00;99.90
21481;DHT22;10902;48.158;8.634;2023-03-14T12:10:08;6.90;99.90
21481;DHT22;10902;48.158;8.634;2023-03-14T12:12:34;7.00;99.90
21481;DHT22;10902;48.158;8.634;2023-03-14T12:15:02;6.90;99.90
21481;DHT22;10902;48.158;8.634;2023-03-14T12:17:41;6.70;99.90
21481;DHT22;10902;48.158;8.634;2023-03-14T12:22:45;6.40;99.90
21481;DHT22;10902;48.158;8.634;2023-03-14T12:25:15;6.10;99.90
21481;DHT22;10902;48.158;8.634;2023-03-14T12:35:47;6.50;99.90
21481;DHT22;10902;48.158;8.634;2023-03-14T12:38:46;6.30;99.90
21481;DHT22;10902;48.158;8.634;2023-03-14T12:41:38;6.30;99.90
21481;DHT22;10902;48.158;8.634;2023-03-14T12:46:54;5.90;99.90
21481;DHT22;10902;48.158;8.634;2023-03-14T12:49:19;5.60;99.90
21481;DHT22;10902;48.158;8.634;2023-03-14T12:51:46;5.40;99.90
21481;DHT22;10902;48.158;8.634;2023-03-14T13:00:23;5.60;99.90
21481;DHT22;10902;48.158;8.634;2023-03-14T13:03:02;5.70;99.90
21481;DHT22;10902;48.158;8.634;2023-03-14T13:05:29;5.60;99.90
21481;DHT22;10902;48.158;8.634;2023-03-14T13:10:25;5.60;99.90
21481;DHT22;10902;48.158;8.634;2023-03-14T13:12:52;5.60;99.90
21481;DHT22;10902;48.158;8.634;2023-03-14T13:21:17;5.90;99.90
21481;DHT22;10902;48.158;8.634;2023-03-14T13:24:20;5.80;99.90
21481;DHT22;10902;48.158;8.634;2023-03-14T13:26:46;5.90;99.90
21481;DHT22;10902;48.158;8.634;2023-03-14T13:31:50;5.90;99.90
21481;DHT22;10902;48.158;8.634;2023-03-14T13:34:16;5.90;99.90
21481;DHT22;10902;48.158;8.634;2023-03-14T13:36:42;6.10;99.90
21481;DHT22;10902;48.158;8.634;2023-03-14T13:39:14;6.10;99.90
21481;DHT22;10902;48.158;8.634;2023-03-14T13:41:42;6.10;99.90
21481;DHT22;10902;48.158;8.634;2023-03-14T13:44:13;5.90;99.90
21481;DHT22;10902;48.158;8.634;2023-03-14T13:46:41;5.80;99.90
21481;DHT22;10902;48.158;8.634;2023-03-14T13:49:11;6.00;99.90
21481;DHT22;10902;48.158;8.634;2023-03-14T13:51:39;6.20;99.90
21481;DHT22;10902;48.158;8.634;2023-03-14T13:54:14;6.20;99.90
21481;DHT22;10902;48.158;8.634;2023-03-14T13:56:39;6.10;99.90
21481;DHT22;10902;48.158;8.634;2023-03-14T13:59:21;6.10;99.90
21481;DHT22;10902;48.158;8.634;2023-03-14T14:01:47;5.90;99.90
21481;DHT22;10902;48.158;8.634;2023-03-14T14:04:18;5.90;99.90
21481;DHT22;10902;48.158;8.634;2023-03-14T14:06:47;5.80;99.90
21481;DHT22;10902;48.158;8.634;2023-03-14T14:09:26;5.70;99.90
21481;DHT22;10902;48.158;8.634;2023-03-14T14:12:06;5.50;99.90
21481;DHT22;10902;48.158;8.634;2023-03-14T14:14:42;5.50;99.90
21481;DHT22;10902;48.158;8.634;2023-03-14T14:17:12;5.30;99.90
21481;DHT22;10902;48.158;8.634;2023-03-14T14:19:41;5.10;99.90
21481;DHT22;10902;48.158;8.634;2023-03-14T14:22:09;5.10;99.90
21481;DHT22;10902;48.158;8.634;2023-03-14T14:24:36;5.10;99.90
21481;DHT22;10902;48.158;8.634;2023-03-14T14:27:24;5.10;99.90
21481;DHT22;10902;48.158;8.634;2023-03-14T14:32:49;5.30;99.90
21481;DHT22;10902;48.158;8.634;2023-03-14T14:35:30;5.40;99.90
21481;DHT22;10902;48.158;8.634;2023-03-14T14:37:56;5.70;99.90
21481;DHT22;10902;48.158;8.634;2023-03-14T14:40:27;5.70;99.90
21481;DHT22;10902;48.158;8.634;2023-03-14T14:42:53;5.60;99.90
21481;DHT22;10902;48.158;8.634;2023-03-14T14:45:22;5.60;99.90
21481;DHT22;10902;48.158;8.634;2023-03-14T14:47:58;5.60;99.90
21481;DHT22;10902;48.158;8.634;2023-03-14T14:50:33;5.60;99.90
21481;DHT22;10902;48.158;8.634;2023-03-14T14:53:02;5.60;99.90
21481;DHT22;10902;48.158;8.634;2023-03-14T14:55:31;6.10;99.90
21481;DHT22;10902;48.158;8.634;2023-03-14T15:01:21;7.40;99.90
21481;DHT22;10902;48.158;8.634;2023-03-14T15:03:50;7.20;99.90
21481;DHT22;10902;48.158;8.634;2023-03-14T15:06:17;7.20;99.90
21481;DHT22;10902;48.158;8.634;2023-03-14T15:08:45;6.80;99.90
21481;DHT22;10902;48.158;8.634;2023-03-14T15:11:22;6.30;99.90
21481;DHT22;10902;48.158;8.634;2023-03-14T15:13:49;6.10;99.90
21481;DHT22;10902;48.158;8.634;2023-03-14T15:16:20;6.10;99.90
21481;DHT22;10902;48.158;8.634;2023-03-14T15:18:53;6.00;99.90
21481;DHT22;10902;48.158;8.634;2023-03-14T15:21:19;6.20;99.90
21481;DHT22;10902;48.158;8.634;2023-03-14T15:23:45;6.30;99.90
21481;DHT22;10902;48.158;8.634;2023-03-14T15:26:16;6.20;99.90
21481;DHT22;10902;48.158;8.634;2023-03-14T15:28:42;6.30;99.90
21481;DHT22;10902;48.158;8.634;2023-03-14T15:31:10;6.50;99.90
21481;DHT22;10902;48.158;8.634;2023-03-14T15:33:36;7.90;99.90
21481;DHT22;10902;48.158;8.634;2023-03-14T15:36:03;8.10;99.90
21481;DHT22;10902;48.158;8.634;2023-03-14T15:38:28;6.90;99.90
21481;DHT22;10902;48.158;8.634;2023-03-14T15:40:54;6.60;99.90
21481;DHT22;10902;48.158;8.634;2023-03-14T15:43:20;8.30;99.90
21481;DHT22;10902;48.158;8.634;2023-03-14T15:45:46;9.80;99.90
21481;DHT22;10902;48.158;8.634;2023-03-14T15:48:15;9.70;99.90
21481;DHT22;10902;48.158;8.634;2023-03-14T15:50:41;8.30;99.90
21481;DHT22;10902;48.158;8.634;2023-03-14T15:53:07;7.50;99.90
21481;DHT22;10902;48.158;8.634;2023-03-14T15:55:32;6.90;99.90
21481;DHT22;10902;48.158;8.634;2023-03-14T15:57:58;6.70;99.90
21481;DHT22;10902;48.158;8.634;2023-03-14T16:00:24;6.50;99.90
21481;DHT22;10902;48.158;8.634;2023-03-14T16:02:50;6.40;99.90
21481;DHT22;10902;48.158;8.634;2023-03-14T16:05:16;6.20;99.90
21481;DHT22;10902;48.158;8.634;2023-03-14T16:07:44;6.20;99.90
21481;DHT22;10902;48.158;8.634;2023-03-14T16:10:11;6.20;99.90
21481;DHT22;10902;48.158;8.634;2023-03-14T16:12:37;6.30;99.90
21481;DHT22;10902;48.158;8.634;2023-03-14T16:15:03;6.40;99.90
21481;DHT22;10902;48.158;8.634;2023-03-14T16:17:29;6.30;99.90
21481;DHT22;10902;48.158;8.634;2023-03-14T16:19:55;6.30;99.90
21481;DHT22;10902;48.158;8.634;2023-03-14T16:22:20;6.70;99.90
21481;DHT22;10902;48.158;8.634;2023-03-14T16:24:46;7.00;99.90
21481;DHT22;10902;48.158;8.634;2023-03-14T16:27:11;7.90;99.90
21481;DHT22;10902;48.158;8.634;2023-03-14T16:29:37;8.50;99.90
21481;DHT22;10902;48.158;8.634;2023-03-14T16:32:03;7.80;99.90
21481;DHT22;10902;48.158;8.634;2023-03-14T16:34:28;7.40;99.90
21481;DHT22;10902;48.158;8.634;2023-03-14T16:36:54;6.80;99.90
21481;DHT22;10902;48.158;8.634;2023-03-14T16:39:20;6.40;99.90
21481;DHT22;10902;48.158;8.634;2023-03-14T16:41:46;6.10;99.90
21481;DHT22;10902;48.158;8.634;2023-03-14T16:44:12;6.00;99.90
21481;DHT22;10902;48.158;8.634;2023-03-14T16:46:37;5.90;99.90
21481;DHT22;10902;48.158;8.634;2023-03-14T16:49:04;5.90;99.90
21481;DHT22;10902;48.158;8.634;2023-03-14T16:51:29;5.80;99.90
21481;DHT22;10902;48.158;8.634;2023-03-14T16:53:55;5.70;99.90
21481;DHT22;10902;48.158;8.634;2023-03-14T16:56:21;5.70;99.90
21481;DHT22;10902;48.158;8.634;2023-03-14T16:58:48;5.60;99.90
21481;DHT22;10902;48.158;8.634;2023-03-14T17:01:16;5.60;99.90
21481;DHT22;10902;48.158;8.634;2023-03-14T17:03:44;5.60;99.90
21481;DHT22;10902;48.158;8.634;2023-03-14T17:06:12;5.60;99.90
21481;DHT22;10902;48.158;8.634;2023-03-14T17:08:38;5.50;99.90